createdAt,value
2019-04-14T00:01:36.757Z,1.60
2019-04-14T00:04:33.332Z,1.70
2019-04-14T00:07:21.143Z,1.70
2019-04-14T00:10:16.194Z,1.70
2019-04-14T00:13:04.525Z,1.70
2019-04-14T00:16:05.627Z,1.50
2019-04-14T00:18:53.388Z,1.60
2019-04-14T00:21:48.481Z,1.80
2019-04-14T00:24:35.835Z,1.73
2019-04-14T00:27:30.268Z,1.70
2019-04-14T00:30:18.935Z,1.63
2019-04-14T00:33:21.402Z,1.80
2019-04-14T00:36:13.341Z,1.83
2019-04-14T00:39:07.482Z,2.00
2019-04-14T00:42:03.051Z,1.80
2019-04-14T00:44:56.355Z,1.80
2019-04-14T00:47:54.764Z,1.67
2019-04-14T00:50:41.659Z,1.70
2019-04-14T00:53:29.560Z,1.67
2019-04-14T00:56:23.727Z,1.80
2019-04-14T00:59:18.713Z,1.80
2019-04-14T01:02:21.080Z,1.50
2019-04-14T01:05:08.954Z,1.90
2019-04-14T01:08:09.626Z,2.00
2019-04-14T01:10:58.395Z,2.00
2019-04-14T01:13:52.963Z,1.80
2019-04-14T01:16:47.356Z,2.00
2019-04-14T01:19:41.697Z,1.73
2019-04-14T01:22:29.277Z,2.00
2019-04-14T01:25:23.897Z,2.00
2019-04-14T01:28:11.330Z,2.00
2019-04-14T01:31:05.710Z,1.90
2019-04-14T01:33:53.387Z,2.00
2019-04-14T01:36:47.692Z,1.90
2019-04-14T01:39:35.065Z,1.80
2019-04-14T01:42:29.642Z,1.70
2019-04-14T01:45:18.717Z,1.90
2019-04-14T01:48:12.767Z,2.07
2019-04-14T01:51:09.155Z,2.10
2019-04-14T01:54:10.638Z,1.90
2019-04-14T01:57:08.870Z,1.80
2019-04-14T02:00:24.948Z,1.90
2019-04-14T02:03:19.483Z,2.20
2019-04-14T02:06:14.050Z,1.90
2019-04-14T02:09:01.384Z,1.93
2019-04-14T02:11:57.474Z,1.80
2019-04-14T02:14:45.242Z,1.80
2019-04-14T02:17:48.144Z,2.00
2019-04-14T02:20:36.017Z,1.77
2019-04-14T02:23:30.417Z,2.07
2019-04-14T02:26:17.842Z,2.00
2019-04-14T02:29:12.150Z,1.87
2019-04-14T02:32:30.077Z,2.00
2019-04-14T02:41:11.089Z,1.87
2019-04-14T02:43:56.468Z,1.93
2019-04-14T02:52:35.513Z,1.73
2019-04-14T02:55:21.252Z,2.13
2019-04-14T02:58:28.863Z,2.10
2019-04-14T03:01:29.622Z,2.17
2019-04-14T03:04:19.550Z,2.10
2019-04-14T03:13:01.722Z,2.00
2019-04-14T03:15:48.149Z,2.10
2019-04-14T03:18:46.595Z,1.90
2019-04-14T03:21:58.758Z,1.70
2019-04-14T03:24:37.149Z,1.93
2019-04-14T03:27:51.865Z,2.20
2019-04-14T03:30:58.596Z,2.03
2019-04-14T03:37:11.336Z,1.90
2019-04-14T03:39:15.341Z,2.00
2019-04-14T03:42:08.558Z,1.90
2019-04-14T03:45:20.615Z,2.10
2019-04-14T03:48:02.136Z,1.80
2019-04-14T03:50:45.487Z,1.90
2019-04-14T03:53:50.669Z,1.90
2019-04-14T03:56:09.154Z,2.23
2019-04-14T03:58:55.371Z,2.00
2019-04-14T04:01:58.607Z,2.30
2019-04-14T04:04:53.390Z,2.03
2019-04-14T04:07:47.567Z,2.10
2019-04-14T04:10:36.153Z,1.93
2019-04-14T04:13:30.343Z,2.20
2019-04-14T04:16:20.128Z,1.80
2019-04-14T04:19:27.222Z,2.00
2019-04-14T04:22:19.316Z,2.17
2019-04-14T04:25:22.489Z,1.87
2019-04-14T04:28:28.079Z,2.50
2019-04-14T04:31:24.155Z,2.07
2019-04-14T04:34:38.647Z,2.13
2019-04-14T04:37:23.528Z,2.20
2019-04-14T04:40:15.737Z,2.40
2019-04-14T04:43:10.170Z,2.20
2019-04-14T04:45:58.120Z,2.23
2019-04-14T04:49:03.408Z,2.03
2019-04-14T04:51:42.139Z,2.10
2019-04-14T04:54:36.456Z,2.20
2019-04-14T04:57:24.599Z,2.10
2019-04-14T05:00:19.946Z,1.90
2019-04-14T05:03:14.559Z,2.00
2019-04-14T05:06:35.083Z,1.97
2019-04-14T05:09:29.787Z,2.03
2019-04-14T05:12:30.974Z,2.10
2019-04-14T05:15:26.926Z,2.10
2019-04-14T05:18:22.231Z,1.90
2019-04-14T05:21:17.050Z,2.17
2019-04-14T05:24:13.959Z,1.87
2019-04-14T05:27:01.441Z,1.90
2019-04-14T05:29:55.905Z,1.93
2019-04-14T05:32:43.500Z,2.30
2019-04-14T05:35:38.447Z,1.90
2019-04-14T05:38:26.194Z,2.00
2019-04-14T05:41:22.277Z,2.10
2019-04-14T05:44:10.002Z,2.10
2019-04-14T05:47:04.699Z,2.03
2019-04-14T05:49:55.006Z,1.90
2019-04-14T05:52:47.183Z,2.30
2019-04-14T05:55:35.182Z,2.27
2019-04-14T05:58:29.749Z,2.23
2019-04-14T06:01:20.270Z,2.30
2019-04-14T06:04:18.518Z,2.00
2019-04-14T06:07:25.460Z,2.27
2019-04-14T06:10:19.883Z,2.20
2019-04-14T06:13:07.056Z,2.30
2019-04-14T06:16:02.257Z,2.17
2019-04-14T06:18:49.404Z,2.30
2019-04-14T06:21:50.504Z,2.20
2019-04-14T06:24:37.961Z,2.23
2019-04-14T06:27:32.251Z,2.20
2019-04-14T06:30:37.209Z,2.20
2019-04-14T06:33:32.655Z,2.23
2019-04-14T06:36:21.671Z,2.13
2019-04-14T06:39:24.139Z,2.20
2019-04-14T06:42:11.418Z,2.20
2019-04-14T06:45:05.497Z,1.97
2019-04-14T06:47:52.555Z,2.13
2019-04-14T06:50:46.866Z,2.10
2019-04-14T06:53:33.971Z,2.10
2019-04-14T06:56:28.424Z,2.30
2019-04-14T06:59:15.785Z,2.10
2019-04-14T07:02:09.380Z,2.00
2019-04-14T07:04:56.568Z,2.20
2019-04-14T07:07:57.761Z,2.30
2019-04-14T07:10:51.688Z,2.03
2019-04-14T07:13:48.000Z,2.10
2019-04-14T07:16:37.180Z,2.47
2019-04-14T07:19:31.568Z,2.20
2019-04-14T07:22:26.286Z,2.13
2019-04-14T07:25:21.098Z,2.00
2019-04-14T07:28:08.610Z,2.20
2019-04-14T07:31:07.545Z,2.37
2019-04-14T07:33:59.143Z,2.43
2019-04-14T07:36:54.764Z,2.00
2019-04-14T07:39:46.387Z,2.33
2019-04-14T07:42:42.158Z,2.30
2019-04-14T07:45:33.818Z,2.40
2019-04-14T07:48:37.744Z,2.10
2019-04-14T07:51:29.512Z,2.50
2019-04-14T07:57:25.734Z,2.50
2019-04-14T08:00:29.306Z,2.03
2019-04-14T08:03:31.140Z,2.17
2019-04-14T08:06:18.312Z,2.10
2019-04-14T08:09:19.984Z,2.30
2019-04-14T08:12:14.434Z,2.30
2019-04-14T08:15:08.990Z,2.30
2019-04-14T08:17:56.201Z,2.20
2019-04-14T08:23:46.435Z,2.30
2019-04-14T08:26:41.560Z,2.20
2019-04-14T08:29:28.494Z,2.50
2019-04-14T08:32:22.278Z,2.40
2019-04-14T08:35:09.569Z,2.10
2019-04-14T08:38:04.123Z,2.53
2019-04-14T08:40:51.165Z,2.57
2019-04-14T08:43:58.952Z,2.40
2019-04-14T08:46:47.852Z,2.40
2019-04-14T08:49:48.848Z,2.50
2019-04-14T08:52:56.338Z,2.30
2019-04-14T08:55:54.526Z,2.50
2019-04-14T08:58:52.720Z,2.63
2019-04-14T09:01:48.064Z,2.60
2019-04-14T09:04:55.031Z,2.80
2019-04-14T09:07:53.210Z,2.50
2019-04-14T09:10:48.780Z,2.60
2019-04-14T09:13:50.466Z,2.40
2019-04-14T09:16:37.587Z,2.40
2019-04-14T09:19:31.372Z,2.43
2019-04-14T09:22:18.682Z,2.27
2019-04-14T09:25:19.426Z,2.77
2019-04-14T09:28:06.210Z,2.70
2019-04-14T09:31:00.333Z,2.40
2019-04-14T09:33:47.303Z,2.63
2019-04-14T09:36:41.450Z,2.40
2019-04-14T09:39:28.706Z,2.20
2019-04-14T09:42:23.622Z,2.63
2019-04-14T09:45:10.715Z,2.60
2019-04-14T09:48:05.581Z,2.40
2019-04-14T09:51:04.192Z,2.60
2019-04-14T09:53:48.037Z,2.50
2019-04-14T09:56:35.369Z,2.37
2019-04-14T09:59:29.479Z,2.70
2019-04-14T10:02:18.617Z,2.40
2019-04-14T10:05:13.623Z,2.33
2019-04-14T10:08:00.781Z,2.20
2019-04-14T10:11:00.939Z,2.90
2019-04-14T10:13:55.283Z,2.67
2019-04-14T10:16:48.789Z,2.50
2019-04-14T10:19:36.271Z,2.50
2019-04-14T10:22:34.231Z,2.43
2019-04-14T10:25:19.396Z,2.67
2019-04-14T10:28:20.215Z,2.53
2019-04-14T10:31:07.295Z,2.70
2019-04-14T10:34:01.193Z,2.40
2019-04-14T10:36:48.443Z,2.70
2019-04-14T10:39:42.294Z,2.20
2019-04-14T10:42:29.389Z,2.23
2019-04-14T10:45:23.295Z,2.30
2019-04-14T10:48:10.113Z,2.23
2019-04-14T10:51:04.763Z,2.60
2019-04-14T10:53:52.285Z,2.60
2019-04-14T10:56:46.035Z,2.70
2019-04-14T10:59:33.421Z,2.63
2019-04-14T11:02:27.629Z,2.10
2019-04-14T11:05:14.757Z,2.70
2019-04-14T11:08:09.179Z,2.30
2019-04-14T11:11:03.111Z,2.40
2019-04-14T11:14:04.804Z,2.50
2019-04-14T11:16:52.203Z,2.73
2019-04-14T11:19:46.430Z,2.50
2019-04-14T11:22:33.525Z,2.43
2019-04-14T11:25:27.818Z,2.40
2019-04-14T11:28:14.800Z,2.60
2019-04-14T11:31:15.874Z,2.30
2019-04-14T11:34:04.357Z,2.50
2019-04-14T11:37:16.617Z,2.67
2019-04-14T11:40:06.235Z,2.50
2019-04-14T11:43:01.534Z,2.60
2019-04-14T11:45:48.675Z,2.27
2019-04-14T11:48:42.852Z,2.60
2019-04-14T11:51:30.026Z,2.83
2019-04-14T11:54:24.590Z,2.50
2019-04-14T11:57:11.570Z,2.60
2019-04-14T12:00:10.334Z,2.53
2019-04-14T12:03:10.937Z,2.37
2019-04-14T12:06:22.790Z,2.50
2019-04-14T12:09:18.997Z,2.50
2019-04-14T12:12:19.607Z,2.40
2019-04-14T12:15:16.651Z,2.67
2019-04-14T12:18:09.048Z,2.53
2019-04-14T12:20:56.099Z,2.67
2019-04-14T12:23:50.661Z,2.43
2019-04-14T12:26:37.936Z,2.67
2019-04-14T12:29:32.599Z,2.40
2019-04-14T12:32:27.594Z,2.40
2019-04-14T12:35:21.582Z,2.53
2019-04-14T12:38:08.952Z,2.37
2019-04-14T12:41:04.444Z,2.50
2019-04-14T12:43:59.255Z,2.73
2019-04-14T12:46:57.259Z,2.43
2019-04-14T12:50:04.190Z,2.97
2019-04-14T12:52:58.663Z,2.27
2019-04-14T12:55:45.682Z,2.30
2019-04-14T12:58:43.826Z,2.67
2019-04-14T13:01:32.435Z,2.43
2019-04-14T13:04:26.790Z,2.60
2019-04-14T13:07:16.407Z,2.43
2019-04-14T13:10:12.111Z,2.70
2019-04-14T13:13:06.173Z,2.80
2019-04-14T13:16:07.466Z,2.70
2019-04-14T13:18:57.116Z,2.57
2019-04-14T13:21:51.288Z,2.60
2019-04-14T13:24:38.500Z,2.40
2019-04-14T13:27:33.025Z,2.77
2019-04-14T13:30:21.858Z,2.67
2019-04-14T13:33:22.714Z,2.70
2019-04-14T13:36:09.713Z,2.50
2019-04-14T13:39:03.730Z,2.30
2019-04-14T13:41:52.631Z,2.57
2019-04-14T13:44:47.254Z,2.60
2019-04-14T13:47:34.499Z,2.60
2019-04-14T13:50:28.536Z,2.43
2019-04-14T13:53:18.937Z,2.70
2019-04-14T13:56:13.438Z,2.30
2019-04-14T13:59:00.553Z,2.70
2019-04-14T14:01:54.255Z,2.23
2019-04-14T14:04:41.837Z,2.83
2019-04-14T14:07:35.964Z,2.57
2019-04-14T14:10:23.218Z,2.60
2019-04-14T14:13:34.476Z,2.60
2019-04-14T14:16:32.931Z,2.80
2019-04-14T14:19:34.231Z,2.60
2019-04-14T14:22:23.126Z,2.57
2019-04-14T14:25:21.601Z,2.07
2019-04-14T14:28:09.277Z,2.60
2019-04-14T14:31:03.348Z,2.50
2019-04-14T14:33:56.930Z,2.53
2019-04-14T14:36:51.371Z,2.60
2019-04-14T14:39:38.887Z,2.57
2019-04-14T14:42:33.381Z,2.53
2019-04-14T14:45:27.878Z,2.67
2019-04-14T14:48:26.362Z,2.70
2019-04-14T14:51:15.234Z,2.33
2019-04-14T14:54:08.976Z,2.87
2019-04-14T14:56:56.168Z,2.63
2019-04-14T14:59:50.064Z,2.73
2019-04-14T15:02:37.200Z,2.33
2019-04-14T15:05:31.782Z,2.80
2019-04-14T15:08:18.900Z,2.60
2019-04-14T15:11:12.989Z,2.47
2019-04-14T15:14:07.602Z,2.53
2019-04-14T15:17:08.862Z,2.70
2019-04-14T15:19:56.064Z,2.67
2019-04-14T15:22:52.287Z,2.50
2019-04-14T15:25:38.480Z,2.57
2019-04-14T15:28:32.755Z,2.60
2019-04-14T15:31:19.693Z,2.87
2019-04-14T15:34:13.957Z,2.30
2019-04-14T15:37:08.569Z,2.77
2019-04-14T15:40:03.128Z,2.57
2019-04-14T15:42:50.408Z,2.67
2019-04-14T15:45:44.413Z,2.57
2019-04-14T15:48:31.812Z,2.53
2019-04-14T15:51:26.163Z,2.47
2019-04-14T15:54:13.599Z,2.50
2019-04-14T15:57:15.214Z,2.70
2019-04-14T16:00:10.880Z,2.60
2019-04-14T16:03:23.066Z,2.60
2019-04-14T16:06:17.535Z,2.60
2019-04-14T16:09:14.195Z,2.50
2019-04-14T16:12:09.441Z,2.47
2019-04-14T16:15:11.024Z,2.40
2019-04-14T16:18:06.626Z,2.60
2019-04-14T16:21:01.135Z,2.67
2019-04-14T16:23:51.064Z,2.67
2019-04-14T16:27:03.180Z,2.50
2019-04-14T16:29:57.666Z,2.70
2019-04-14T16:32:55.349Z,2.77
2019-04-14T16:35:44.224Z,2.40
2019-04-14T16:38:45.809Z,2.23
2019-04-14T16:41:33.064Z,2.90
2019-04-14T16:44:27.788Z,2.80
2019-04-14T16:47:15.012Z,2.70
2019-04-14T16:50:09.604Z,2.63
2019-04-14T16:52:58.384Z,2.70
2019-04-14T16:56:08.695Z,2.53
2019-04-14T16:58:58.415Z,2.60
2019-04-14T17:01:53.179Z,2.60
2019-04-14T17:04:40.718Z,2.50
2019-04-14T17:07:35.204Z,2.47
2019-04-14T17:10:22.854Z,2.60
2019-04-14T17:13:23.552Z,2.50
2019-04-14T17:16:48.459Z,2.47
2019-04-14T17:19:57.208Z,2.57
2019-04-14T17:22:45.582Z,2.83
2019-04-14T17:25:40.760Z,2.57
2019-04-14T17:28:44.456Z,2.37
2019-04-14T17:31:56.569Z,2.67
2019-04-14T17:34:45.277Z,2.50
2019-04-14T17:37:57.325Z,2.60
2019-04-14T17:40:55.392Z,2.60
2019-04-14T17:43:51.217Z,2.57
2019-04-14T17:46:56.339Z,2.53
2019-04-14T17:49:57.817Z,2.43
2019-04-14T17:52:49.325Z,2.20
2019-04-14T17:55:49.933Z,2.57
2019-04-14T17:58:54.001Z,2.70
2019-04-14T18:01:59.570Z,2.57
2019-04-14T18:04:48.479Z,2.70
2019-04-14T18:07:43.834Z,2.37
2019-04-14T18:10:32.833Z,2.40
2019-04-14T18:13:43.761Z,2.57
2019-04-14T18:16:39.324Z,2.47
2019-04-14T18:19:45.221Z,2.70
2019-04-14T18:22:39.490Z,2.63
2019-04-14T18:25:34.004Z,2.40
2019-04-14T18:28:25.994Z,2.50
2019-04-14T18:31:21.623Z,2.70
2019-04-14T18:34:12.411Z,2.63
2019-04-14T18:37:13.420Z,2.50
2019-04-14T18:40:16.688Z,2.80
2019-04-14T18:43:18.974Z,2.57
2019-04-14T18:46:07.773Z,2.57
2019-04-14T18:49:03.482Z,2.40
2019-04-14T18:51:54.475Z,2.70
2019-04-14T18:54:54.667Z,2.30
2019-04-14T18:57:46.793Z,2.60
2019-04-14T19:00:45.405Z,2.57
2019-04-14T19:03:33.063Z,2.33
2019-04-14T19:06:26.731Z,2.80
2019-04-14T19:09:13.832Z,2.67
2019-04-14T19:12:28.651Z,2.70
2019-04-14T19:15:26.710Z,2.57
2019-04-14T19:18:25.595Z,2.93
2019-04-14T19:21:20.136Z,2.57
2019-04-14T19:24:20.855Z,3.00
2019-04-14T19:27:08.097Z,2.60
2019-04-14T19:30:04.799Z,2.50
2019-04-14T19:32:52.219Z,2.43
2019-04-14T19:35:46.415Z,2.80
2019-04-14T19:38:33.856Z,2.53
2019-04-14T19:41:27.843Z,2.67
2019-04-14T19:44:21.524Z,2.63
2019-04-14T19:47:16.173Z,2.47
2019-04-14T19:50:03.999Z,2.60
2019-04-14T19:52:57.977Z,2.87
2019-04-14T19:55:45.263Z,2.43
2019-04-14T19:58:39.150Z,2.80
2019-04-14T20:01:26.503Z,2.60
2019-04-14T20:04:20.128Z,2.63
2019-04-14T20:07:06.906Z,2.80
2019-04-14T20:10:01.040Z,2.70
2019-04-14T20:12:48.223Z,2.93
2019-04-14T20:15:43.743Z,2.57
2019-04-14T20:18:48.726Z,2.60
2019-04-14T20:21:49.939Z,2.50
2019-04-14T20:24:48.233Z,2.70
2019-04-14T20:27:43.171Z,2.57
2019-04-14T20:30:35.002Z,2.67
2019-04-14T20:34:18.093Z,2.63
2019-04-14T20:37:11.651Z,2.50
2019-04-14T20:40:12.487Z,2.53
2019-04-14T20:43:06.262Z,2.80
2019-04-14T20:46:06.857Z,2.70
2019-04-14T20:49:03.996Z,2.57
2019-04-14T20:51:58.235Z,2.97
2019-04-14T20:54:51.709Z,2.63
2019-04-14T20:57:46.194Z,2.67
2019-04-14T21:00:40.267Z,2.63
2019-04-14T21:03:41.342Z,2.70
2019-04-14T21:06:51.744Z,2.60
2019-04-14T21:09:59.827Z,2.50
2019-04-14T21:12:55.743Z,2.70
2019-04-14T21:16:12.827Z,2.73
2019-04-14T21:19:22.879Z,2.73
2019-04-14T21:22:25.573Z,2.60
2019-04-14T21:25:33.683Z,2.60
2019-04-14T21:28:39.087Z,2.80
2019-04-14T21:31:37.767Z,2.30
2019-04-14T21:34:46.877Z,2.30
2019-04-14T21:37:49.327Z,2.60
2019-04-14T21:40:57.523Z,2.80
2019-04-14T21:43:51.253Z,2.60
2019-04-14T21:46:58.324Z,2.57
2019-04-14T21:49:52.223Z,2.60
2019-04-14T21:52:54.072Z,2.60
2019-04-14T21:55:47.803Z,2.70
2019-04-14T21:58:42.934Z,2.33
2019-04-14T22:01:49.910Z,2.57
2019-04-14T22:04:59.143Z,2.70
2019-04-14T22:08:13.172Z,2.43
2019-04-14T22:11:25.182Z,2.57
2019-04-14T22:14:12.696Z,2.40
2019-04-14T22:17:15.778Z,2.70
2019-04-14T22:20:09.777Z,2.50
2019-04-14T22:23:12.554Z,2.67
2019-04-14T22:26:06.504Z,2.57
2019-04-14T22:29:02.409Z,2.40
2019-04-14T22:31:55.725Z,2.30
2019-04-14T22:34:57.188Z,2.53
2019-04-14T22:37:51.484Z,2.60
2019-04-14T22:40:51.861Z,2.50
2019-04-14T22:43:38.916Z,2.33
2019-04-14T22:46:39.747Z,2.27
2019-04-14T22:49:33.732Z,2.57
2019-04-14T22:52:33.748Z,2.70
2019-04-14T22:55:41.574Z,2.30
2019-04-14T22:58:42.242Z,2.47
2019-04-14T23:01:38.426Z,2.50
2019-04-14T23:04:40.009Z,2.60
2019-04-14T23:07:35.266Z,2.60
2019-04-14T23:10:41.976Z,2.30
2019-04-14T23:13:53.210Z,2.17
2019-04-14T23:17:05.198Z,2.40
2019-04-14T23:20:03.643Z,2.50
2019-04-14T23:23:06.019Z,2.53
2019-04-14T23:26:01.674Z,2.27
2019-04-14T23:29:02.553Z,2.50
2019-04-14T23:31:56.367Z,2.23
2019-04-14T23:34:57.524Z,2.70
2019-04-14T23:37:44.811Z,2.40
2019-04-14T23:40:45.565Z,2.30
2019-04-14T23:43:47.738Z,2.53
2019-04-14T23:46:44.100Z,2.33
2019-04-14T23:49:38.604Z,2.33
2019-04-14T23:52:38.668Z,2.60
2019-04-14T23:55:33.233Z,2.27
2019-04-14T23:58:35.336Z,2.70
